Aeroporto :
LOGIN :

Iscrizione | Disclaimer

   EN    FR    IT 

 










Sommario :    VFR   VFR Marginale   IFR   IFR Intensivo   IFR Molto Intensivo
Visibilità : 
Base nubi : 
>= 8 km
>= 3000ft
5 / 8 km
1000 / 3000 ft
1500m / 5 km
500 / 1000 ft
800 / 1500m
200 / 500 ft
< 800m
< 200 ft
Simboli :   Temporali  Nebbia  Neve Forte  Precipitazioni Forti  Vento > 20 kt
SIGMETs :   Varie  Temporali  Ghiacco  Turbolenza  Onda orograficha  Ceneri Vulcaniche







- Altitudine del aeroporto : 788 ft
- Codice IATA : DCM
- Carte del aeroporto


LFCK - Castres-Mazamet

ULTIMO METAR :
  • 190900Z AUTO 28002KT CAVOK 08/05 Q1023 NOSIG

METARs OBSOLETI :
  • 190830Z AUTO 27002KT CAVOK 07/04 Q1023 NOSIG
  • 190800Z AUTO 00000KT 9000 NSC 06/04 Q1023 NOSIG
  • 190730Z AUTO 10006KT CAVOK 08/05 Q1023 NOSIG
  • 190700Z AUTO 11007KT CAVOK 06/04 Q1022 NOSIG
  • 190630Z AUTO 11008KT CAVOK 08/05 Q1022 NOSIG

TAF TAF LFCK
Valido dal 19 a 09 ore il 19 a 18 ore UTC


190800Z 1909/1918 VRB02KT CAVOK
BECMG 1909/1911 28005KT
TEMPO 1910/1918 BKN025
BECMG 1916/1918 VRB02KT
Nessun NOTAM noto per questo aeroporto.
1 SIGMET conosciuto per la FIR Bordeaux (LFBB) :
 
Turbolenza severa
LFBB SIGMET 2 VALID 190800/191200 LFPW
LFBB BORDEAUX FIR/UIR SEV TURB FCST NW OF LINE N4330 W00145 - N4715 E00130 FL200/300 STNR NC=



MetMap, La meteo Aeronautica in un colpo d'occhio ! - Copyright ORBIFLY Dicembre 2007 - Disclaimer

ORBIFLY MET'MAP TEAM :

Programmazione e sviluppo : Alexandra Zaïnal
Concezione e sviluppo : Baudouin d'Aumeries
Co-Programmazione e sviluppo : Marc-Olivier Méhu
Supporto tecnico e logistico : Manuel Goepfert
Aiuto per la traduzione : Arnaldo La Scala

Contatto : metmap@orbifly.com




FONTI E CREDITI :

   NOAA